Mc Faddin, Texas
Current Conditions -  °F | °C
As of 4:55 PM on Tuesday 21 Oct 2014 (Local Time) from KPKV Reporting Station
Clear Clear  
Wind Chill: 26°   Ceiling: Unl
Heat Index: 27°   Visibility: 10mi
Dew Point: 19°   Wind: 15mph
Humidity: 62%   Direction: 120°ESE
Pressure: 29.95"   Gusts: NA
Location:  28.5526°N, 97.018°W
Report Text: KPKV 212155Z AUTO 12013KT 10SM CLR 26/19 A2995 RMK AO2 T02630185
Loading
Personal Weather Stations






























Interactive Weather Map
Tropical Storm Tracking
New forecast layout! Learn more

10-Day Weather Forecast

Advertisements
Track Severe Weather on mobile